createdAt,value
2023-04-19T00:01:26.451Z,102395.16
2023-04-19T00:03:30.945Z,102392.72
2023-04-19T00:05:33.252Z,102390.81
2023-04-19T00:07:35.716Z,102389.25
2023-04-19T00:09:37.857Z,102391.22
2023-04-19T00:11:40.151Z,102388.94
2023-04-19T00:13:42.309Z,102382.78
2023-04-19T00:15:44.534Z,102385.53
2023-04-19T00:17:46.607Z,102386.41
2023-04-19T00:19:48.833Z,102387.28
2023-04-19T00:21:50.979Z,102376.97
2023-04-19T00:23:54.422Z,102381.13
2023-04-19T00:25:56.642Z,102367.19
2023-04-19T00:27:58.981Z,102373.34
2023-04-19T00:30:03.173Z,102374.81
2023-04-19T00:32:06.323Z,102367.28
2023-04-19T00:34:09.270Z,102370.13
2023-04-19T00:36:13.609Z,102363.75
2023-04-19T00:38:17.388Z,102366.16
2023-04-19T00:40:20.066Z,102366.31
2023-04-19T00:42:23.168Z,102365.31
2023-04-19T00:44:25.170Z,102362.03
2023-04-19T00:46:27.966Z,102356.16
2023-04-19T00:48:31.047Z,102359.09
2023-04-19T00:50:33.182Z,102359.34
2023-04-19T00:52:35.668Z,102358.69
2023-04-19T00:54:38.388Z,102357.72
2023-04-19T00:56:41.130Z,102354.72
2023-04-19T00:58:43.236Z,102345.63
2023-04-19T01:00:45.169Z,102353.06
2023-04-19T01:02:48.177Z,102346.53
2023-04-19T01:04:50.429Z,102349.09
2023-04-19T01:06:52.398Z,102346.47
2023-04-19T01:08:54.616Z,102338.22
2023-04-19T01:10:56.547Z,102347.00
2023-04-19T01:12:58.453Z,102338.59
2023-04-19T01:15:00.433Z,102335.75
2023-04-19T01:17:02.359Z,102336.56
2023-04-19T01:19:04.323Z,102330.34
2023-04-19T01:21:07.520Z,102337.44
2023-04-19T01:23:11.896Z,102334.81
2023-04-19T01:25:13.935Z,102328.91
2023-04-19T01:27:17.654Z,102324.63
2023-04-19T01:29:20.984Z,102327.19
2023-04-19T01:31:22.999Z,102326.53
2023-04-19T01:33:25.034Z,102321.97
2023-04-19T01:35:27.061Z,102323.50
2023-04-19T01:37:28.992Z,102326.25
2023-04-19T01:39:31.458Z,102318.59
2023-04-19T01:41:33.377Z,102327.50
2023-04-19T01:43:35.308Z,102316.59
2023-04-19T01:45:37.508Z,102323.75
2023-04-19T01:47:39.536Z,102318.75
2023-04-19T01:49:41.491Z,102321.66
2023-04-19T01:51:43.513Z,102321.66
2023-04-19T01:53:45.506Z,102323.28
2023-04-19T01:55:47.478Z,102320.16
2023-04-19T01:57:49.373Z,102324.44
2023-04-19T01:59:52.621Z,102324.63
2023-04-19T02:01:54.554Z,102326.81
2023-04-19T02:03:57.756Z,102321.97
2023-04-19T02:05:59.855Z,102323.91
2023-04-19T02:08:01.922Z,102305.75
2023-04-19T02:10:05.996Z,102309.25
2023-04-19T02:12:08.098Z,102306.50
2023-04-19T02:14:10.689Z,102307.41
2023-04-19T02:16:12.994Z,102306.50
2023-04-19T02:18:15.026Z,102311.50
2023-04-19T02:20:17.044Z,102304.81
2023-04-19T02:22:19.836Z,102309.78
2023-04-19T02:24:21.768Z,102301.28
2023-04-19T02:26:24.721Z,102308.75
2023-04-19T02:28:26.645Z,102302.59
2023-04-19T02:30:28.626Z,102309.72
2023-04-19T02:32:30.696Z,102294.38
2023-04-19T02:34:34.725Z,102288.34
2023-04-19T02:36:36.648Z,102300.97
2023-04-19T02:38:38.646Z,102294.94
2023-04-19T02:40:40.612Z,102294.31
2023-04-19T02:42:42.540Z,102288.13
2023-04-19T02:44:44.492Z,102288.28
2023-04-19T02:46:50.536Z,102297.38
2023-04-19T02:48:52.463Z,102289.94
2023-04-19T02:50:54.617Z,102290.88
2023-04-19T02:52:58.138Z,102301.84
2023-04-19T02:55:00.027Z,102287.19
2023-04-19T02:57:02.053Z,102288.03
2023-04-19T02:59:04.750Z,102299.09
2023-04-19T03:01:07.325Z,102292.28
2023-04-19T03:03:09.890Z,102298.16
2023-04-19T03:05:11.956Z,102292.59
2023-04-19T03:07:14.325Z,102294.75
2023-04-19T03:09:16.261Z,102298.63
2023-04-19T03:11:18.783Z,102297.81
2023-04-19T03:13:20.876Z,102294.31
2023-04-19T03:15:23.235Z,102294.59
2023-04-19T03:17:25.208Z,102297.41
2023-04-19T03:19:27.160Z,102292.94
2023-04-19T03:21:29.285Z,102289.28
2023-04-19T03:23:31.177Z,102291.13
2023-04-19T03:25:33.404Z,102292.13
2023-04-19T03:27:36.979Z,102285.41
2023-04-19T03:29:38.889Z,102286.03
2023-04-19T03:31:40.871Z,102282.66
2023-04-19T03:33:42.892Z,102287.03
2023-04-19T03:35:45.933Z,102282.25
2023-04-19T03:37:47.875Z,102279.59
2023-04-19T03:39:49.824Z,102279.84
2023-04-19T03:41:51.797Z,102282.41
2023-04-19T03:43:53.792Z,102287.56
2023-04-19T03:45:55.695Z,102281.59
2023-04-19T03:47:57.908Z,102287.63
2023-04-19T03:50:00.424Z,102277.34
2023-04-19T03:52:02.337Z,102277.44
2023-04-19T03:54:04.543Z,102285.06
2023-04-19T03:56:06.694Z,102278.16
2023-04-19T03:58:08.646Z,102276.53
2023-04-19T04:00:11.807Z,102273.97
2023-04-19T04:02:13.860Z,102279.66
2023-04-19T04:04:16.350Z,102281.53
2023-04-19T04:06:18.625Z,102275.72
2023-04-19T04:08:20.550Z,102273.00
2023-04-19T04:10:22.443Z,102271.53
2023-04-19T04:12:24.473Z,102271.41
2023-04-19T04:14:26.384Z,102266.97
2023-04-19T04:16:28.499Z,102276.16
2023-04-19T04:18:31.009Z,102279.47
2023-04-19T04:20:32.959Z,102270.66
2023-04-19T04:22:34.868Z,102275.66
2023-04-19T04:24:41.490Z,102270.66
2023-04-19T04:26:43.474Z,102276.97
2023-04-19T04:28:46.073Z,102268.88
2023-04-19T04:30:47.956Z,102271.47
2023-04-19T04:32:51.474Z,102277.69
2023-04-19T04:34:53.497Z,102278.50
2023-04-19T04:36:55.972Z,102276.97
2023-04-19T04:39:02.023Z,102286.84
2023-04-19T04:41:03.982Z,102283.25
2023-04-19T04:43:05.916Z,102279.47
2023-04-19T04:45:10.896Z,102277.88
2023-04-19T04:47:13.902Z,102282.22
2023-04-19T04:49:15.866Z,102289.47
2023-04-19T04:51:17.777Z,102281.41
2023-04-19T04:53:20.477Z,102284.03
2023-04-19T04:55:22.560Z,102284.84
2023-04-19T04:57:24.636Z,102292.56
2023-04-19T04:59:26.891Z,102300.25
2023-04-19T05:01:28.956Z,102303.63
2023-04-19T05:03:30.937Z,102293.31
2023-04-19T05:05:32.880Z,102289.75
2023-04-19T05:07:34.814Z,102287.44
2023-04-19T05:09:36.754Z,102294.97
2023-04-19T05:11:38.881Z,102289.66
2023-04-19T05:13:40.982Z,102297.00
2023-04-19T05:15:42.889Z,102294.13
2023-04-19T05:17:44.919Z,102298.47
2023-04-19T05:19:46.932Z,102309.53
2023-04-19T05:21:49.071Z,102299.94
2023-04-19T05:23:53.731Z,102303.50
2023-04-19T05:25:55.729Z,102299.72
2023-04-19T05:27:58.296Z,102291.56
2023-04-19T05:30:00.256Z,102293.09
2023-04-19T05:32:02.244Z,102303.09
2023-04-19T05:34:04.181Z,102300.53
2023-04-19T05:36:06.740Z,102303.72
2023-04-19T05:38:08.678Z,102305.59
2023-04-19T05:40:10.888Z,102301.13
2023-04-19T05:42:12.860Z,102308.19
2023-04-19T05:44:15.257Z,102313.19
2023-04-19T05:46:17.554Z,102310.75
2023-04-19T05:48:19.670Z,102315.84
2023-04-19T05:50:21.687Z,102318.41
2023-04-19T05:52:23.638Z,102324.44
2023-04-19T05:54:25.675Z,102316.66
2023-04-19T05:56:27.741Z,102313.25
2023-04-19T05:58:29.743Z,102314.00
2023-04-19T06:00:32.688Z,102324.94
2023-04-19T06:02:34.746Z,102320.91
2023-04-19T06:04:37.388Z,102323.63
2023-04-19T06:06:39.970Z,102320.91
2023-04-19T06:08:42.013Z,102325.25
2023-04-19T06:10:54.536Z,102324.81
2023-04-19T06:12:58.907Z,102320.09
2023-04-19T06:15:00.878Z,102327.28
2023-04-19T06:17:03.115Z,102322.13
2023-04-19T06:19:05.114Z,102323.88
2023-04-19T06:21:07.076Z,102314.41
2023-04-19T06:23:09.058Z,102326.66
2023-04-19T06:25:11.048Z,102321.88
2023-04-19T06:27:13.159Z,102319.22
2023-04-19T06:29:15.171Z,102315.38
2023-04-19T06:31:17.184Z,102324.09
2023-04-19T06:33:19.172Z,102315.63
2023-04-19T06:35:21.394Z,102322.06
2023-04-19T06:37:23.323Z,102323.00
2023-04-19T06:39:25.404Z,102323.53
2023-04-19T06:41:27.400Z,102317.06
2023-04-19T06:43:29.428Z,102323.69
2023-04-19T06:45:32.217Z,102320.19
2023-04-19T06:47:35.927Z,102327.16
2023-04-19T06:49:38.087Z,102322.75
2023-04-19T06:51:40.392Z,102323.91
2023-04-19T06:53:44.199Z,102321.38
2023-04-19T06:55:49.408Z,102321.88
2023-04-19T06:57:52.644Z,102317.41
2023-04-19T06:59:55.792Z,102318.75
2023-04-19T07:01:58.764Z,102324.09
2023-04-19T07:04:01.879Z,102324.28
2023-04-19T07:06:04.472Z,102315.72
2023-04-19T07:08:06.481Z,102321.28
2023-04-19T07:10:09.702Z,102323.69
2023-04-19T07:12:11.697Z,102322.50
2023-04-19T07:14:14.485Z,102331.13
2023-04-19T07:16:16.935Z,102341.16
2023-04-19T07:18:20.380Z,102332.00
2023-04-19T07:20:22.720Z,102345.59
2023-04-19T07:22:24.826Z,102335.09
2023-04-19T07:24:29.833Z,102335.63
2023-04-19T07:26:32.018Z,102337.69
2023-04-19T07:28:34.240Z,102338.44
2023-04-19T07:30:36.603Z,102343.66
2023-04-19T07:32:39.050Z,102350.28
2023-04-19T07:34:42.695Z,102343.94
2023-04-19T07:36:44.865Z,102351.81
2023-04-19T07:38:47.350Z,102346.03
2023-04-19T07:40:50.136Z,102341.16
2023-04-19T07:42:52.209Z,102345.66
2023-04-19T07:44:54.344Z,102353.13
2023-04-19T07:46:56.613Z,102349.00
2023-04-19T07:48:58.782Z,102347.59
2023-04-19T07:51:07.100Z,102356.41
2023-04-19T07:53:09.902Z,102344.31
2023-04-19T07:55:11.934Z,102347.38
2023-04-19T07:57:13.951Z,102347.63
2023-04-19T07:59:16.160Z,102351.88
2023-04-19T08:01:18.529Z,102335.34
2023-04-19T08:03:20.873Z,102349.41
2023-04-19T08:05:24.047Z,102346.47
2023-04-19T08:07:26.459Z,102347.50
2023-04-19T08:09:28.581Z,102351.06
2023-04-19T08:11:30.850Z,102350.25
2023-04-19T08:13:32.960Z,102352.94
2023-04-19T08:17:43.716Z,102347.50
2023-04-19T08:19:46.198Z,102351.31
2023-04-19T08:21:48.455Z,102358.88
2023-04-19T08:23:52.735Z,102356.59
2023-04-19T08:25:56.331Z,102356.81
2023-04-19T08:27:58.404Z,102353.53
2023-04-19T08:30:00.543Z,102356.59
2023-04-19T08:32:02.865Z,102364.84
2023-04-19T08:34:05.085Z,102363.88
2023-04-19T08:36:07.935Z,102364.28
2023-04-19T08:38:10.126Z,102370.53
2023-04-19T08:40:12.403Z,102359.50
2023-04-19T08:42:28.831Z,102359.56
2023-04-19T08:44:46.692Z,102353.69
2023-04-19T08:46:58.997Z,102362.16
2023-04-19T08:49:01.433Z,102364.94
2023-04-19T08:51:05.454Z,102361.81
2023-04-19T08:55:16.991Z,102361.19
2023-04-19T08:57:19.104Z,102361.53
2023-04-19T08:59:21.405Z,102370.47
2023-04-19T09:01:34.807Z,102364.16
2023-04-19T09:03:59.368Z,102367.56
2023-04-19T09:06:05.659Z,102370.78
2023-04-19T09:08:14.392Z,102366.19
2023-04-19T09:10:18.982Z,102372.09
2023-04-19T09:12:21.015Z,102373.09
2023-04-19T09:14:23.433Z,102376.63
2023-04-19T09:16:26.215Z,102369.69
2023-04-19T09:18:30.684Z,102364.84
2023-04-19T09:20:38.206Z,102366.19
2023-04-19T09:22:40.813Z,102362.09
2023-04-19T09:26:54.361Z,102362.81
2023-04-19T09:29:02.191Z,102365.44
2023-04-19T09:31:26.179Z,102364.38
2023-04-19T09:33:35.280Z,102363.09
2023-04-19T09:35:41.820Z,102360.94
2023-04-19T09:39:48.889Z,102358.53
2023-04-19T09:41:53.721Z,102367.09
2023-04-19T09:44:50.270Z,102359.38
2023-04-19T09:46:35.082Z,102366.25
2023-04-19T09:48:37.485Z,102366.47
2023-04-19T09:52:53.291Z,102364.03
2023-04-19T09:54:56.211Z,102352.16
2023-04-19T09:57:00.854Z,102353.09
2023-04-19T09:59:19.370Z,102353.78
2023-04-19T10:01:23.798Z,102350.81
2023-04-19T10:03:29.745Z,102354.09
2023-04-19T10:05:33.507Z,102344.09
2023-04-19T10:07:37.570Z,102346.69
2023-04-19T10:09:51.770Z,102335.97
2023-04-19T10:12:03.728Z,102339.59
2023-04-19T10:14:16.533Z,102335.81
2023-04-19T10:16:20.514Z,102331.72
2023-04-19T10:18:23.515Z,102330.22
2023-04-19T10:20:31.343Z,102326.75
2023-04-19T10:22:37.915Z,102328.47
2023-04-19T10:24:39.928Z,102325.97
2023-04-19T10:26:48.218Z,102320.09
2023-04-19T10:28:50.196Z,102323.16
2023-04-19T10:30:55.935Z,102316.13
2023-04-19T10:33:00.013Z,102319.75
2023-04-19T10:35:05.489Z,102311.13
2023-04-19T10:37:11.193Z,102317.31
2023-04-19T10:39:36.226Z,102314.31
2023-04-19T10:41:59.673Z,102301.44
2023-04-19T10:44:05.167Z,102312.69
2023-04-19T10:46:14.226Z,102305.53
2023-04-19T10:48:22.480Z,102304.75
2023-04-19T10:50:25.025Z,102308.97
2023-04-19T10:52:29.750Z,102305.00
2023-04-19T10:54:34.528Z,102309.53
2023-04-19T10:56:39.459Z,102299.22
2023-04-19T10:58:48.560Z,102302.81
2023-04-19T11:00:50.813Z,102295.75
2023-04-19T11:02:52.877Z,102297.53
2023-04-19T11:04:55.912Z,102295.78
2023-04-19T11:07:02.755Z,102292.91
2023-04-19T11:09:07.373Z,102303.00
2023-04-19T11:11:11.131Z,102287.03
2023-04-19T11:13:14.170Z,102287.19
2023-04-19T11:15:16.292Z,102280.16
2023-04-19T11:17:19.083Z,102285.25
2023-04-19T11:19:21.212Z,102292.44
2023-04-19T11:21:24.150Z,102281.16
2023-04-19T11:23:26.376Z,102287.00
2023-04-19T11:25:31.819Z,102276.03
2023-04-19T11:27:34.908Z,102279.97
2023-04-19T11:29:37.201Z,102276.06
2023-04-19T11:31:39.385Z,102266.94
2023-04-19T11:33:44.381Z,102263.69
2023-04-19T11:35:46.699Z,102260.63
2023-04-19T11:37:49.231Z,102260.84
2023-04-19T11:39:51.223Z,102258.03
2023-04-19T11:41:53.375Z,102256.59
2023-04-19T11:43:55.560Z,102247.25
2023-04-19T11:46:06.520Z,102239.44
2023-04-19T11:48:15.997Z,102247.41
2023-04-19T11:50:24.331Z,102243.97
2023-04-19T11:52:26.838Z,102234.59
2023-04-19T11:54:29.169Z,102232.13
2023-04-19T11:56:31.322Z,102232.38
2023-04-19T11:58:38.402Z,102230.97
2023-04-19T12:00:40.541Z,102225.19
2023-04-19T12:02:44.594Z,102223.38
2023-04-19T12:04:52.573Z,102224.44
2023-04-19T12:07:03.919Z,102232.13
2023-04-19T12:09:10.306Z,102228.66
2023-04-19T12:11:12.474Z,102230.84
2023-04-19T12:13:18.361Z,102227.03
2023-04-19T12:15:23.027Z,102233.19
2023-04-19T12:17:27.183Z,102222.00
2023-04-19T12:19:36.717Z,102220.16
2023-04-19T12:21:39.452Z,102216.94
2023-04-19T12:23:42.136Z,102218.53
2023-04-19T12:25:46.628Z,102220.94
2023-04-19T12:27:48.752Z,102218.38
2023-04-19T12:29:51.170Z,102214.72
2023-04-19T12:31:53.811Z,102200.47
2023-04-19T12:33:56.094Z,102208.41
2023-04-19T12:35:58.173Z,102212.31
2023-04-19T12:38:00.693Z,102210.16
2023-04-19T12:40:02.872Z,102208.44
2023-04-19T12:42:06.387Z,102209.69
2023-04-19T12:44:08.448Z,102195.09
2023-04-19T12:46:10.522Z,102208.44
2023-04-19T12:48:12.719Z,102203.94
2023-04-19T12:50:16.246Z,102200.00
2023-04-19T12:52:19.900Z,102187.88
2023-04-19T12:54:21.988Z,102187.13
2023-04-19T12:56:24.237Z,102194.94
2023-04-19T12:58:28.311Z,102200.25
2023-04-19T13:00:30.946Z,102200.88
2023-04-19T13:02:35.558Z,102201.72
2023-04-19T13:04:38.082Z,102200.63
2023-04-19T13:06:41.281Z,102209.47
2023-04-19T13:08:47.028Z,102199.00
2023-04-19T13:10:50.342Z,102193.78
2023-04-19T13:12:52.594Z,102187.56
2023-04-19T13:14:54.960Z,102186.72
2023-04-19T13:16:57.115Z,102186.84
2023-04-19T13:18:59.249Z,102191.22
2023-04-19T13:21:01.414Z,102178.31
2023-04-19T13:23:03.564Z,102177.56
2023-04-19T13:25:06.341Z,102179.88
2023-04-19T13:27:09.278Z,102181.81
2023-04-19T13:29:11.526Z,102181.66
2023-04-19T13:31:13.753Z,102170.34
2023-04-19T13:33:15.957Z,102175.41
2023-04-19T13:35:18.068Z,102178.88
2023-04-19T13:37:20.079Z,102186.13
2023-04-19T13:39:22.234Z,102182.81
2023-04-19T13:41:24.273Z,102170.00
2023-04-19T13:43:26.389Z,102181.44
2023-04-19T13:45:28.584Z,102178.97
2023-04-19T13:47:30.756Z,102170.56
2023-04-19T13:49:32.928Z,102170.72
2023-04-19T13:51:46.380Z,102162.16
2023-04-19T13:53:52.381Z,102152.75
2023-04-19T13:55:54.582Z,102159.88
2023-04-19T13:57:56.657Z,102156.44
2023-04-19T13:59:58.839Z,102150.41
2023-04-19T14:02:03.370Z,102140.97
2023-04-19T14:04:06.437Z,102147.88
2023-04-19T14:06:08.944Z,102137.50
2023-04-19T14:08:11.459Z,102147.13
2023-04-19T14:10:13.865Z,102136.72
2023-04-19T14:12:16.600Z,102131.50
2023-04-19T14:14:19.279Z,102135.91
2023-04-19T14:16:24.392Z,102125.44
2023-04-19T14:18:26.523Z,102135.91
2023-04-19T14:20:28.852Z,102128.91
2023-04-19T14:22:32.269Z,102134.97
2023-04-19T14:24:34.797Z,102133.31
2023-04-19T14:26:37.367Z,102123.69
2023-04-19T14:28:40.252Z,102124.53
2023-04-19T14:30:42.514Z,102123.66
2023-04-19T14:32:45.136Z,102133.25
2023-04-19T14:34:47.705Z,102137.63
2023-04-19T14:36:51.564Z,102136.75
2023-04-19T14:38:54.044Z,102135.91
2023-04-19T14:40:56.670Z,102135.88
2023-04-19T14:42:58.811Z,102135.00
2023-04-19T14:45:01.161Z,102141.13
2023-04-19T14:47:03.705Z,102128.84
2023-04-19T14:49:06.327Z,102141.97
2023-04-19T14:51:08.712Z,102143.72
2023-04-19T14:53:11.259Z,102134.13
2023-04-19T14:55:14.041Z,102141.94
2023-04-19T14:57:16.655Z,102133.16
2023-04-19T14:59:18.968Z,102134.06
2023-04-19T15:01:23.648Z,102135.88
2023-04-19T15:03:26.441Z,102140.22
2023-04-19T15:05:29.252Z,102139.38
2023-04-19T15:07:31.905Z,102139.38
2023-04-19T15:09:34.361Z,102147.22
2023-04-19T15:11:37.481Z,102141.97
2023-04-19T15:13:40.498Z,102134.09
2023-04-19T15:15:42.828Z,102140.25
2023-04-19T15:17:45.232Z,102150.75
2023-04-19T15:19:47.804Z,102134.13
2023-04-19T15:21:50.345Z,102144.63
2023-04-19T15:23:52.810Z,102146.28
2023-04-19T15:25:56.207Z,102146.22
2023-04-19T15:27:58.615Z,102155.03
2023-04-19T15:30:01.155Z,102153.13
2023-04-19T15:32:04.983Z,102154.91
2023-04-19T15:34:07.476Z,102151.38
2023-04-19T15:36:09.800Z,102161.00
2023-04-19T15:38:11.915Z,102154.09
2023-04-19T15:40:14.782Z,102146.25
2023-04-19T15:42:17.260Z,102155.84
2023-04-19T15:44:20.160Z,102144.63
2023-04-19T15:46:22.727Z,102149.00
2023-04-19T15:48:25.406Z,102146.38
2023-04-19T15:50:28.383Z,102154.16
2023-04-19T15:52:30.950Z,102160.25
2023-04-19T15:54:33.810Z,102146.22
2023-04-19T15:56:36.398Z,102146.25
2023-04-19T15:58:39.089Z,102160.19
2023-04-19T16:00:41.647Z,102158.44
2023-04-19T16:02:44.381Z,102166.25
2023-04-19T16:04:48.507Z,102161.91
2023-04-19T16:06:51.632Z,102152.28
2023-04-19T16:08:54.062Z,102153.13
2023-04-19T16:10:56.304Z,102153.81
2023-04-19T16:12:58.990Z,102148.53
2023-04-19T16:15:01.608Z,102161.06
2023-04-19T16:17:04.445Z,102154.34
2023-04-19T16:19:06.944Z,102148.41
2023-04-19T16:21:11.099Z,102147.44
2023-04-19T16:23:14.882Z,102148.16
2023-04-19T16:25:17.901Z,102155.94
2023-04-19T16:27:20.754Z,102149.63
2023-04-19T16:29:23.236Z,102146.22
2023-04-19T16:31:26.590Z,102154.97
2023-04-19T16:33:29.136Z,102139.94
2023-04-19T16:35:31.670Z,102156.25
2023-04-19T16:37:34.717Z,102167.75
2023-04-19T16:39:37.337Z,102152.13
2023-04-19T16:41:39.948Z,102164.31
2023-04-19T16:43:42.590Z,102162.63
2023-04-19T16:45:48.110Z,102157.22
2023-04-19T16:47:50.852Z,102169.38
2023-04-19T16:49:54.935Z,102170.63
2023-04-19T16:51:58.635Z,102167.47
2023-04-19T16:54:01.653Z,102170.16
2023-04-19T16:56:04.949Z,102167.25
2023-04-19T16:58:07.562Z,102168.00
2023-04-19T17:00:11.783Z,102179.81
2023-04-19T17:02:17.395Z,102172.22
2023-04-19T17:04:20.644Z,102177.00
2023-04-19T17:06:23.369Z,102178.78
2023-04-19T17:08:26.829Z,102169.16
2023-04-19T17:10:29.594Z,102181.22
2023-04-19T17:12:31.977Z,102178.84
2023-04-19T17:14:35.790Z,102182.13
2023-04-19T17:16:38.397Z,102181.03
2023-04-19T17:18:40.930Z,102182.78
2023-04-19T17:20:43.453Z,102189.41
2023-04-19T17:22:45.607Z,102181.75
2023-04-19T17:24:48.158Z,102189.19
2023-04-19T17:26:50.476Z,102190.59
2023-04-19T17:28:53.088Z,102188.09
2023-04-19T17:30:55.655Z,102187.88
2023-04-19T17:32:58.097Z,102193.91
2023-04-19T17:35:00.297Z,102193.66
2023-04-19T17:37:02.552Z,102190.81
2023-04-19T17:39:06.883Z,102193.06
2023-04-19T17:41:16.274Z,102186.94
2023-04-19T17:43:18.572Z,102186.28
2023-04-19T17:45:21.221Z,102185.91
2023-04-19T17:47:23.479Z,102190.69
2023-04-19T17:49:27.242Z,102187.22
2023-04-19T17:51:29.450Z,102181.84
2023-04-19T17:53:32.019Z,102177.50
2023-04-19T17:55:34.714Z,102178.47
2023-04-19T17:57:37.018Z,102174.28
2023-04-19T17:59:39.278Z,102174.50
2023-04-19T18:01:41.859Z,102180.06
2023-04-19T18:03:44.492Z,102172.03
2023-04-19T18:05:47.012Z,102181.00
2023-04-19T18:07:49.066Z,102174.25
2023-04-19T18:09:51.364Z,102180.06
2023-04-19T18:11:53.650Z,102177.28
2023-04-19T18:13:56.113Z,102196.50
2023-04-19T18:15:59.075Z,102183.47
2023-04-19T18:18:01.266Z,102188.59
2023-04-19T18:20:05.583Z,102186.09
2023-04-19T18:22:07.782Z,102178.81
2023-04-19T18:24:10.273Z,102184.09
2023-04-19T18:26:14.340Z,102189.59
2023-04-19T18:28:16.422Z,102193.88
2023-04-19T18:30:18.532Z,102190.53
2023-04-19T18:32:22.871Z,102184.16
2023-04-19T18:34:25.187Z,102194.66
2023-04-19T18:36:28.977Z,102192.13
2023-04-19T18:38:31.312Z,102194.56
2023-04-19T18:40:33.390Z,102192.13
2023-04-19T18:42:35.447Z,102197.13
2023-04-19T18:44:53.097Z,102198.66
2023-04-19T18:46:56.300Z,102197.69
2023-04-19T18:48:58.987Z,102209.22
2023-04-19T18:51:01.661Z,102206.22
2023-04-19T18:53:03.818Z,102202.09
2023-04-19T18:55:06.892Z,102208.84
2023-04-19T18:57:22.479Z,102209.91
2023-04-19T18:59:26.350Z,102207.84
2023-04-19T19:01:28.978Z,102190.56
2023-04-19T19:03:56.815Z,102208.72
2023-04-19T19:05:55.711Z,102213.03
2023-04-19T19:07:58.108Z,102220.66
2023-04-19T19:10:03.591Z,102219.31
2023-04-19T19:12:12.655Z,102221.94
2023-04-19T19:14:16.890Z,102217.47
2023-04-19T19:16:19.842Z,102221.84
2023-04-19T19:18:22.303Z,102223.22
2023-04-19T19:20:24.803Z,102224.16
2023-04-19T19:22:28.972Z,102239.50
2023-04-19T19:24:31.448Z,102232.91
2023-04-19T19:26:33.691Z,102240.00
2023-04-19T19:28:36.186Z,102237.47
2023-04-19T19:30:40.306Z,102248.28
2023-04-19T19:32:42.668Z,102244.88
2023-04-19T19:34:54.485Z,102242.13
2023-04-19T19:37:01.213Z,102246.31
2023-04-19T19:39:03.696Z,102247.41
2023-04-19T19:43:12.177Z,102244.94
2023-04-19T19:45:15.572Z,102244.75
2023-04-19T19:47:19.109Z,102255.78
2023-04-19T19:49:22.252Z,102257.13
2023-04-19T19:51:52.337Z,102254.13
2023-04-19T19:53:46.784Z,102254.34
2023-04-19T19:55:48.970Z,102254.34
2023-04-19T20:00:00.323Z,102250.88
2023-04-19T20:02:12.087Z,102251.81
2023-04-19T20:04:14.594Z,102258.31
2023-04-19T20:07:13.522Z,102258.25
2023-04-19T20:08:44.489Z,102261.16
2023-04-19T20:10:47.430Z,102255.72
2023-04-19T20:12:49.807Z,102269.69
2023-04-19T20:14:52.136Z,102264.50
2023-04-19T20:16:54.488Z,102261.34
2023-04-19T20:18:58.125Z,102263.19
2023-04-19T20:21:00.761Z,102264.06
2023-04-19T20:23:03.265Z,102269.56
2023-04-19T20:25:06.866Z,102264.16
2023-04-19T20:27:09.347Z,102265.94
2023-04-19T20:29:11.848Z,102269.28
2023-04-19T20:31:14.674Z,102253.06
2023-04-19T20:33:17.302Z,102274.09
2023-04-19T20:35:19.822Z,102274.84
2023-04-19T20:37:23.447Z,102264.31
2023-04-19T20:39:27.081Z,102276.41
2023-04-19T20:41:29.632Z,102273.34
2023-04-19T20:43:32.874Z,102274.91
2023-04-19T20:45:35.660Z,102274.66
2023-04-19T20:47:39.165Z,102275.44
2023-04-19T20:49:41.916Z,102270.09
2023-04-19T20:51:44.229Z,102276.31
2023-04-19T20:53:46.734Z,102273.31
2023-04-19T20:55:49.358Z,102273.06
2023-04-19T20:57:51.999Z,102274.03
2023-04-19T20:59:54.676Z,102273.56
2023-04-19T21:01:57.492Z,102274.28
2023-04-19T21:04:00.338Z,102260.69
2023-04-19T21:06:03.009Z,102269.22
2023-04-19T21:08:05.638Z,102276.25
2023-04-19T21:10:08.682Z,102260.88
2023-04-19T21:12:11.147Z,102268.28
2023-04-19T21:14:13.544Z,102268.25
2023-04-19T21:16:15.958Z,102276.22
2023-04-19T21:18:18.410Z,102270.56
2023-04-19T21:20:20.672Z,102274.91
2023-04-19T21:22:23.176Z,102271.47
2023-04-19T21:24:25.442Z,102268.66
2023-04-19T21:26:27.724Z,102261.94
2023-04-19T21:28:30.155Z,102266.41
2023-04-19T21:30:32.510Z,102271.31
2023-04-19T21:32:34.857Z,102266.03
2023-04-19T21:34:38.566Z,102271.69
2023-04-19T21:36:41.195Z,102263.91
2023-04-19T21:38:43.505Z,102264.72
2023-04-19T21:40:45.889Z,102270.47
2023-04-19T21:42:48.117Z,102267.91
2023-04-19T21:44:50.339Z,102266.47
2023-04-19T21:46:52.553Z,102260.25
2023-04-19T21:48:56.005Z,102255.09
2023-04-19T21:50:58.610Z,102261.13
2023-04-19T21:53:01.190Z,102269.47
2023-04-19T21:55:03.865Z,102264.84
2023-04-19T21:57:06.088Z,102275.56
2023-04-19T21:59:08.318Z,102269.13
2023-04-19T22:01:11.061Z,102275.16
2023-04-19T22:03:13.519Z,102262.56
2023-04-19T22:05:17.091Z,102264.19
2023-04-19T22:07:19.585Z,102264.19
2023-04-19T22:09:21.932Z,102259.75
2023-04-19T22:11:24.324Z,102264.84
2023-04-19T22:13:28.547Z,102265.97
2023-04-19T22:15:31.678Z,102271.13
2023-04-19T22:17:33.846Z,102267.31
2023-04-19T22:19:36.002Z,102268.34
2023-04-19T22:21:38.093Z,102259.13
2023-04-19T22:23:40.337Z,102258.72
2023-04-19T22:25:42.475Z,102267.94
2023-04-19T22:27:45.633Z,102256.59
2023-04-19T22:29:47.829Z,102265.97
2023-04-19T22:31:49.958Z,102256.75
2023-04-19T22:33:52.341Z,102263.72
2023-04-19T22:35:54.478Z,102257.00
2023-04-19T22:37:56.839Z,102257.16
2023-04-19T22:39:59.370Z,102264.28
2023-04-19T22:42:01.806Z,102254.72
2023-04-19T22:44:04.024Z,102254.09
2023-04-19T22:46:06.449Z,102250.03
2023-04-19T22:48:09.078Z,102239.00
2023-04-19T22:50:11.914Z,102243.81
2023-04-19T22:52:14.751Z,102250.03
2023-04-19T22:54:17.283Z,102239.75
2023-04-19T22:56:20.342Z,102239.28
2023-04-19T22:58:22.698Z,102240.69
2023-04-19T23:00:26.057Z,102240.75
2023-04-19T23:02:28.419Z,102237.16
2023-04-19T23:04:35.481Z,102233.53
2023-04-19T23:06:37.784Z,102240.28
2023-04-19T23:08:40.651Z,102234.53
2023-04-19T23:10:43.722Z,102224.31
2023-04-19T23:12:47.363Z,102226.69
2023-04-19T23:14:50.749Z,102226.53
2023-04-19T23:16:54.906Z,102227.44
2023-04-19T23:18:57.293Z,102220.16
2023-04-19T23:20:59.705Z,102215.59
2023-04-19T23:23:02.044Z,102219.09
2023-04-19T23:25:04.957Z,102222.44
2023-04-19T23:27:07.044Z,102209.63
2023-04-19T23:29:10.294Z,102215.53
2023-04-19T23:31:12.578Z,102208.56
2023-04-19T23:33:14.866Z,102212.59
2023-04-19T23:35:17.024Z,102205.09
2023-04-19T23:37:19.168Z,102206.69
2023-04-19T23:39:22.705Z,102210.78
2023-04-19T23:41:24.914Z,102209.78
2023-04-19T23:43:27.187Z,102207.78